Time;durP1;ratioP1;P1;durP2;ratioP2;P2;SDS_P1;SDS_P2;PMS_P1;PMS_P2;Temp;Humidity;BMP_temperature;BMP_pressure;BME280_temperature;BME280_humidity;BME280_pressure;Samples;Min_cycle;Max_cycle;Signal;HPM_P1;HPM_P2
2022/07/09 00:01:20;;;;;;;10.40;6.05;;;;;;;18.65;100.00;94627.84;4971966;28;20298;-74
2022/07/09 00:04:11;;;;;;;8.25;6.03;;;;;;;18.67;100.00;94633.63;4972452;28;20205;-73
2022/07/09 00:06:55;;;;;;;8.38;6.18;;;;;;;18.67;100.00;94631.00;4972049;28;20231;-73
2022/07/09 00:09:51;;;;;;;7.88;5.60;;;;;;;18.58;100.00;94630.00;4970616;28;20211;-74
2022/07/09 00:12:51;;;;;;;6.67;5.40;;;;;;;18.59;100.00;94638.66;4970640;28;20215;-73
2022/07/09 00:15:43;;;;;;;6.28;5.32;;;;;;;18.57;100.00;94640.78;4972058;28;20193;-74
2022/07/09 00:18:32;;;;;;;8.80;5.55;;;;;;;18.50;100.00;94632.38;4972105;28;20205;-74
2022/07/09 00:21:27;;;;;;;6.40;5.00;;;;;;;18.21;100.00;94623.47;4971567;28;20216;-73
2022/07/09 00:24:22;;;;;;;5.77;5.10;;;;;;;18.30;100.00;94619.22;4971543;28;20247;-73
2022/07/09 00:27:16;;;;;;;6.47;5.10;;;;;;;18.22;100.00;94622.41;4971333;28;20228;-73
2022/07/09 00:30:16;;;;;;;5.33;4.83;;;;;;;18.28;100.00;94610.81;4971935;28;20837;-74
2022/07/09 00:33:11;;;;;;;4.82;4.40;;;;;;;18.36;100.00;94610.25;4971958;28;20626;-72
2022/07/09 00:39:02;;;;;;;5.23;4.50;;;;;;;17.81;100.00;94601.41;4968305;28;20771;-73
2022/07/09 00:41:57;;;;;;;4.43;4.03;;;;;;;17.53;100.00;94612.41;4969831;28;20272;-72
2022/07/09 00:44:47;;;;;;;5.20;4.30;;;;;;;17.23;100.00;94609.75;4971450;28;20689;-72
2022/07/09 00:47:42;;;;;;;7.50;4.77;;;;;;;17.15;100.00;94608.41;4971866;28;20285;-72
2022/07/09 00:50:32;;;;;;;6.73;4.70;;;;;;;17.01;100.00;94600.25;4971607;28;20204;-72
2022/07/09 00:53:25;;;;;;;5.23;4.17;;;;;;;16.78;100.00;94592.00;4971716;28;20204;-74
2022/07/09 00:56:14;;;;;;;6.03;5.00;;;;;;;16.88;100.00;94592.84;4971871;28;20204;-75
2022/07/09 00:59:02;;;;;;;6.10;4.73;;;;;;;16.78;100.00;94582.31;4971465;28;20625;-72
2022/07/09 01:02:03;;;;;;;5.10;4.60;;;;;;;16.74;100.00;94585.69;4971629;28;20695;-72
2022/07/09 01:05:02;;;;;;;7.03;4.87;;;;;;;16.81;100.00;94581.81;4971773;28;20205;-73
2022/07/09 01:07:45;;;;;;;9.90;4.90;;;;;;;16.69;100.00;94577.81;4971221;28;20209;-74
2022/07/09 01:10:28;;;;;;;5.07;4.33;;;;;;;16.63;100.00;94581.47;4971369;28;20212;-73
2022/07/09 01:13:23;;;;;;;5.63;5.00;;;;;;;16.65;100.00;94582.00;4971485;28;20201;-73
2022/07/09 01:18:57;;;;;;;5.93;4.70;;;;;;;16.71;100.00;94578.34;4971934;28;20201;-73
2022/07/09 01:21:53;;;;;;;5.03;4.53;;;;;;;16.76;100.00;94576.53;4971339;28;20212;-73
2022/07/09 01:24:46;;;;;;;5.70;4.47;;;;;;;16.84;100.00;94576.03;4971115;28;20240;-73
2022/07/09 01:27:36;;;;;;;7.27;4.10;;;;;;;16.83;100.00;94574.44;4972479;28;20751;-74
2022/07/09 01:30:37;;;;;;;5.27;4.53;;;;;;;16.65;100.00;94564.41;4975151;28;20394;-74
2022/07/09 01:33:30;;;;;;;5.17;4.63;;;;;;;16.74;100.00;94575.19;4972844;28;20352;-71
2022/07/09 01:39:29;;;;;;;4.70;4.30;;;;;;;16.57;100.00;94557.03;4969834;28;20225;-73
2022/07/09 01:42:16;;;;;;;5.37;4.40;;;;;;;16.47;100.00;94562.22;4974793;28;20243;-73
2022/07/09 01:45:09;;;;;;;5.00;4.53;;;;;;;16.41;100.00;94558.78;4974564;28;20300;-73
2022/07/09 01:47:59;;;;;;;6.90;4.70;;;;;;;16.44;100.00;94562.75;4974653;28;20204;-72
2022/07/09 01:50:45;;;;;;;5.17;4.63;;;;;;;16.51;100.00;94563.28;4975030;28;20283;-72
2022/07/09 01:56:34;;;;;;;6.90;4.97;;;;;;;16.71;100.00;94571.25;4973834;28;20201;-73
2022/07/09 01:59:34;;;;;;;5.20;4.70;;;;;;;16.72;100.00;94561.56;4974174;28;20267;-73
2022/07/09 02:02:25;;;;;;;5.47;4.60;;;;;;;16.70;100.00;94564.44;4974564;28;20208;-73
2022/07/09 02:05:25;;;;;;;4.40;4.00;;;;;;;16.60;100.00;94559.16;4974441;28;20208;-73
2022/07/09 02:08:13;;;;;;;5.00;4.50;;;;;;;16.52;100.00;94566.69;4974521;28;20212;-73
2022/07/09 02:11:03;;;;;;;4.83;4.33;;;;;;;16.45;100.00;94567.72;4974701;28;20299;-73
2022/07/09 02:14:01;;;;;;;6.10;4.30;;;;;;;16.59;100.00;94568.09;4974388;28;20208;-73
2022/07/09 02:19:52;;;;;;;8.27;4.17;;;;;;;16.73;100.00;94571.81;4973904;28;20209;-73
2022/07/09 02:22:44;;;;;;;4.90;4.10;;;;;;;16.80;100.00;94572.34;4974119;28;20197;-72
2022/07/09 02:25:38;;;;;;;4.50;4.10;;;;;;;16.71;100.00;94573.13;4973179;28;20666;-73
2022/07/09 02:28:35;;;;;;;4.63;4.23;;;;;;;16.80;100.00;94577.59;4974152;28;20564;-72
2022/07/09 02:31:38;;;;;;;4.20;3.80;;;;;;;16.88;100.00;94574.44;4973957;28;20204;-73
2022/07/09 02:37:13;;;;;;;4.30;3.90;;;;;;;16.85;100.00;94585.47;4973226;28;20263;-73
2022/07/09 02:43:03;;;;;;;5.73;4.20;;;;;;;16.74;100.00;94586.47;4973329;28;20287;-73
2022/07/09 02:46:06;;;;;;;;;;;;;;;;;;;;;
2022/07/09 02:49:05;;;;;;;4.90;4.40;;;;;;;16.51;100.00;94562.50;4974208;28;20208;-73
2022/07/09 02:51:53;;;;;;;4.97;4.27;;;;;;;16.59;100.00;94581.19;4973907;28;20211;-72
2022/07/09 02:54:41;;;;;;;5.43;4.47;;;;;;;16.47;100.00;94583.22;4973827;28;20571;-73
2022/07/09 03:06:23;;;;;;;4.80;4.30;;;;;;;16.64;100.00;94596.16;4967614;28;20299;-74
2022/07/09 03:09:10;;;;;;;6.67;4.77;;;;;;;16.71;100.00;94602.75;4973517;28;20196;-74
2022/07/09 03:11:59;;;;;;;4.97;4.53;;;;;;;16.68;100.00;94600.63;4973749;28;20572;-74
2022/07/09 03:14:57;;;;;;;6.50;5.20;;;;;;;16.77;100.00;94596.47;4972992;28;20201;-73
2022/07/09 03:20:39;;;;;;;5.97;4.30;;;;;;;16.95;100.00;94598.63;4971809;28;20240;-74
2022/07/09 03:23:35;;;;;;;7.97;4.70;;;;;;;17.07;100.00;94600.25;4973496;28;20204;-74
2022/07/09 03:26:25;;;;;;;7.23;4.03;;;;;;;17.13;100.00;94600.00;4934385;29;20215;-73
2022/07/09 03:32:03;;;;;;;6.00;4.17;;;;;;;17.19;100.00;94598.97;4933998;29;20210;-72
2022/07/09 03:35:03;;;;;;;7.50;4.00;;;;;;;17.24;100.00;94592.91;4934676;29;20206;-72
2022/07/09 03:38:06;;;;;;;5.53;4.43;;;;;;;17.27;100.00;94601.06;4934525;29;20210;-72
2022/07/09 03:44:00;;;;;;;9.00;4.50;;;;;;;17.29;100.00;94592.91;4933951;29;20597;-72
2022/07/09 03:46:53;;;;;;;4.50;4.00;;;;;;;17.29;100.00;94592.91;4934076;29;20210;-73
2022/07/09 03:52:29;;;;;;;5.67;4.33;;;;;;;17.32;100.00;94597.66;4931747;29;20788;-73
2022/07/09 03:55:25;;;;;;;6.13;4.30;;;;;;;17.34;100.00;94601.63;4932871;29;20206;-73
2022/07/09 03:58:18;;;;;;;4.30;3.80;;;;;;;17.30;100.00;94587.44;4934181;29;20689;-73
2022/07/09 04:01:10;;;;;;;5.20;4.70;;;;;;;17.41;100.00;94603.97;4934003;29;20293;-73
2022/07/09 04:04:04;;;;;;;4.43;4.03;;;;;;;17.48;100.00;94602.69;4934119;29;20757;-73
2022/07/09 04:06:55;;;;;;;5.80;4.47;;;;;;;17.53;100.00;94601.91;4933514;29;20229;-73
2022/07/09 04:09:52;;;;;;;4.93;4.43;;;;;;;17.55;100.00;94600.59;4933781;29;20681;-73
2022/07/09 04:12:48;;;;;;;4.90;4.47;;;;;;;17.55;100.00;94610.31;4933759;29;20669;-73
2022/07/09 04:18:24;;;;;;;7.27;4.60;;;;;;;17.55;100.00;94615.59;4933515;29;20289;-73
2022/07/09 04:21:21;;;;;;;5.00;4.50;;;;;;;17.52;100.00;94614.25;4934074;29;20216;-72
2022/07/09 04:24:16;;;;;;;5.77;4.80;;;;;;;17.48;100.00;94612.41;4942864;28;20237;-72
2022/07/09 04:27:08;;;;;;;5.57;4.60;;;;;;;17.34;100.00;94614.75;4971800;28;20225;-73
2022/07/09 04:32:52;;;;;;;8.17;5.17;;;;;;;17.30;100.00;94621.56;4970829;28;20213;-73
2022/07/09 04:35:42;;;;;;;5.70;5.10;;;;;;;17.32;100.00;94616.03;4972050;28;20209;-74
2022/07/09 04:38:26;;;;;;;6.37;4.97;;;;;;;17.15;100.00;94610.22;4970604;28;20533;-74
2022/07/09 04:41:04;;;;;;;8.80;5.30;;;;;;;17.18;100.00;94613.13;4971963;28;20205;-74
2022/07/09 04:43:51;;;;;;;8.30;4.90;;;;;;;17.11;100.00;94607.34;4971356;28;20664;-73
2022/07/09 04:46:48;;;;;;;;;;;;;;;;;;;;;
2022/07/09 04:49:48;;;;;;;5.83;4.60;;;;;;;16.94;100.00;94604.16;4967994;28;20208;-74
2022/07/09 04:52:44;;;;;;;9.47;5.10;;;;;;;16.82;100.00;94596.50;4971819;28;20651;-74
2022/07/09 04:55:34;;;;;;;6.83;5.30;;;;;;;16.82;100.00;94601.75;4971766;28;20714;-74
2022/07/09 04:58:23;;;;;;;6.50;4.73;;;;;;;16.93;100.00;94610.44;4971803;28;20207;-73
2022/07/09 05:01:12;;;;;;;6.90;4.93;;;;;;;16.93;100.00;94611.25;4971677;28;20246;-73
2022/07/09 05:04:01;;;;;;;8.33;4.30;;;;;;;16.87;100.00;94612.28;4974208;28;20236;-74
2022/07/09 05:07:10;;;;;;;6.60;4.77;;;;;;;16.72;100.00;94608.78;4975552;28;20232;-74
2022/07/09 05:12:56;;;;;;;9.90;5.93;;;;;;;16.69;100.00;94620.59;4975637;28;20220;-74
2022/07/09 05:21:38;;;;;;;5.60;4.80;;;;;;;16.70;100.00;94622.19;4973502;28;20372;-73
2022/07/09 05:24:40;;;;;;;6.90;4.63;;;;;;;16.73;100.00;94624.28;4975017;28;20735;-73
2022/07/09 05:27:33;;;;;;;5.60;4.27;;;;;;;16.71;100.00;94621.13;4975139;28;20275;-74
2022/07/09 05:30:28;;;;;;;5.03;4.30;;;;;;;16.87;100.00;94624.59;4970896;28;20209;-73
2022/07/09 05:33:20;;;;;;;5.77;4.60;;;;;;;16.76;100.00;94629.03;4975033;28;20595;-73
2022/07/09 05:36:21;;;;;;;5.17;4.63;;;;;;;16.76;100.00;94642.16;4974666;28;20212;-73
2022/07/09 05:39:17;;;;;;;5.43;4.50;;;;;;;16.73;100.00;94640.03;4975243;28;20648;-73
2022/07/09 05:42:15;;;;;;;5.00;4.50;;;;;;;16.78;100.00;94634.03;4975072;28;20204;-73
2022/07/09 05:45:01;;;;;;;5.77;4.50;;;;;;;16.86;100.00;94636.16;4974458;28;20209;-74
2022/07/09 05:48:02;;;;;;;5.00;4.37;;;;;;;16.91;100.00;94636.94;4974519;28;20232;-74
2022/07/09 05:50:50;;;;;;;8.13;4.30;;;;;;;17.02;100.00;94637.78;4974624;28;20212;-74
2022/07/09 05:53:26;;;;;;;5.00;4.23;;;;;;;16.98;100.00;94641.97;4969541;28;20288;-74
2022/07/09 05:56:12;;;;;;;6.60;4.20;;;;;;;16.96;100.00;94646.69;4974630;28;20204;-74
2022/07/09 05:59:13;;;;;;;6.13;4.23;;;;;;;17.01;100.00;94646.72;4974117;28;20208;-74
2022/07/09 06:02:08;;;;;;;5.83;4.10;;;;;;;17.06;100.00;94649.34;4974781;28;20220;-74
2022/07/09 06:08:03;;;;;;;8.77;4.33;;;;;;;17.22;100.00;94637.84;4973200;28;20239;-73
2022/07/09 06:10:39;;;;;;;4.47;3.70;;;;;;;17.18;100.00;94643.88;4974095;28;20200;-73
2022/07/09 06:13:19;;;;;;;7.40;4.10;;;;;;;17.15;100.00;94644.38;4972916;28;20205;-73
2022/07/09 06:16:12;;;;;;;4.57;4.10;;;;;;;17.14;100.00;94648.06;4973718;28;20258;-73
2022/07/09 06:19:00;;;;;;;4.80;4.40;;;;;;;17.20;100.00;94650.44;4973831;28;20288;-73
2022/07/09 06:21:45;;;;;;;4.90;4.30;;;;;;;17.29;100.00;94648.88;4973806;28;20205;-73
2022/07/09 06:27:40;;;;;;;5.63;4.23;;;;;;;17.38;100.00;94649.97;4975095;28;20228;-73
2022/07/09 06:30:33;;;;;;;4.70;4.10;;;;;;;17.37;100.00;94642.34;4973892;28;20201;-73
2022/07/09 06:33:29;;;;;;;6.07;4.23;;;;;;;17.34;100.00;94650.75;4974005;28;20216;-75
2022/07/09 06:36:16;;;;;;;5.77;4.40;;;;;;;17.48;100.00;94657.09;4973779;28;20208;-73
2022/07/09 06:42:25;;;;;;;5.70;4.23;;;;;;;17.53;100.00;94662.34;4973762;28;20212;-73
2022/07/09 06:45:22;;;;;;;6.80;4.30;;;;;;;17.62;100.00;94660.81;4973437;28;20584;-73
2022/07/09 06:51:15;;;;;;;4.80;4.40;;;;;;;17.74;100.00;94663.19;4968419;28;20268;-72
2022/07/09 06:54:13;;;;;;;5.57;4.60;;;;;;;17.87;100.00;94665.28;4969430;28;20201;-74
2022/07/09 06:57:06;;;;;;;16.33;13.60;;;;;;;17.85;100.00;94665.56;4973460;28;20267;-74
2022/07/09 06:59:46;;;;;;;18.37;16.47;;;;;;;17.91;100.00;94663.72;4973212;28;20324;-74
2022/07/09 07:05:29;;;;;;;14.17;12.67;;;;;;;17.88;100.00;94670.31;4972863;28;20221;-72
2022/07/09 07:08:32;;;;;;;11.57;9.23;;;;;;;17.91;100.00;94656.63;4972904;28;20212;-73
2022/07/09 07:11:04;;;;;;;10.13;6.90;;;;;;;18.04;100.00;94663.97;4973659;28;20204;-73
2022/07/09 07:16:39;;;;;;;6.10;5.00;;;;;;;18.15;100.00;94670.81;4969730;28;20294;-73
2022/07/09 07:19:40;;;;;;;6.00;5.13;;;;;;;18.08;100.00;94667.69;4973055;28;20295;-73
2022/07/09 07:25:18;;;;;;;7.10;4.73;;;;;;;18.03;100.00;94665.06;4971532;28;20315;-73
2022/07/09 07:28:04;;;;;;;8.00;5.23;;;;;;;18.00;100.00;94664.78;4972929;28;20224;-74
2022/07/09 07:31:01;;;;;;;6.10;5.40;;;;;;;18.02;100.00;94675.81;4972641;28;20200;-74
2022/07/09 07:33:51;;;;;;;4.90;4.50;;;;;;;18.04;100.00;94666.63;4972852;28;20300;-73
2022/07/09 07:39:37;;;;;;;6.93;5.10;;;;;;;18.24;100.00;94668.44;4970094;28;20220;-74
2022/07/09 07:42:41;;;;;;;6.37;5.47;;;;;;;18.20;100.00;94671.88;4972835;28;20223;-74
2022/07/09 07:45:34;;;;;;;5.20;4.60;;;;;;;18.32;100.00;94661.88;4972704;28;20208;-73
2022/07/09 07:48:27;;;;;;;6.93;5.20;;;;;;;18.48;100.00;94666.03;4972627;28;20232;-74
2022/07/09 07:54:18;;;;;;;5.23;4.77;;;;;;;18.56;100.00;94670.78;4974060;28;20646;-73
2022/07/09 07:57:17;;;;;;;5.72;4.93;;;;;;;18.50;100.00;94670.00;4970658;28;20212;-74
2022/07/09 08:00:22;;;;;;;5.10;4.60;;;;;;;18.46;100.00;94665.53;4972315;28;20216;-72
2022/07/09 08:03:18;;;;;;;5.20;4.70;;;;;;;18.49;100.00;94675.56;4972264;28;20633;-73
2022/07/09 08:06:00;;;;;;;8.13;4.68;;;;;;;18.62;100.00;94673.16;4972086;28;20240;-73
2022/07/09 08:08:43;;;;;;;4.85;4.40;;;;;;;18.68;100.00;94666.81;4972114;28;20303;-73
2022/07/09 08:11:37;;;;;;;6.90;4.97;;;;;;;18.69;100.00;94662.34;4972004;28;20205;-73
2022/07/09 08:14:34;;;;;;;7.00;5.00;;;;;;;18.54;100.00;94667.63;4971998;28;20204;-72
2022/07/09 08:20:28;;;;;;;7.80;5.10;;;;;;;18.52;100.00;94669.75;4972065;28;20209;-73
2022/07/09 08:23:24;;;;;;;9.00;7.15;;;;;;;18.62;100.00;94667.88;4972003;28;21006;-72
2022/07/09 08:26:28;;;;;;;9.52;6.25;;;;;;;18.88;100.00;94668.59;4933806;29;20293;-73
2022/07/09 08:32:28;;;;;;;4.30;3.90;;;;;;;18.99;100.00;94670.13;4933466;29;20206;-74
2022/07/09 08:35:29;;;;;;;4.70;4.30;;;;;;;19.14;100.00;94666.66;4933398;29;20210;-73
2022/07/09 08:38:24;;;;;;;6.20;3.92;;;;;;;19.17;100.00;94680.06;4935400;29;20214;-73
2022/07/09 08:41:16;;;;;;;7.00;4.45;;;;;;;19.11;100.00;94681.16;4937324;29;20661;-73
2022/07/09 08:44:05;;;;;;;5.50;4.45;;;;;;;18.97;100.00;94674.88;4937227;29;20713;-73
2022/07/09 08:46:58;;;;;;;7.45;6.75;;;;;;;18.80;100.00;94677.06;4935878;29;20241;-73
2022/07/09 08:49:58;;;;;;;11.88;10.68;;;;;;;18.91;100.00;94683.88;4937185;29;20218;-73
2022/07/09 08:52:49;;;;;;;10.23;8.88;;;;;;;19.04;100.00;94675.41;4936904;29;20206;-72
2022/07/09 08:55:36;;;;;;;7.05;6.35;;;;;;;19.03;100.00;94675.66;4934715;29;20214;-72
2022/07/09 08:58:24;;;;;;;8.82;7.15;;;;;;;19.00;100.00;94682.25;4936974;29;20202;-72
2022/07/09 09:04:04;;;;;;;5.72;5.15;;;;;;;18.96;100.00;94672.53;4937205;29;20210;-72
2022/07/09 09:10:04;;;;;;;5.28;4.72;;;;;;;19.05;100.00;94686.72;4935618;29;20210;-73
2022/07/09 09:16:03;;;;;;;5.50;5.00;;;;;;;19.07;100.00;94682.78;4936216;29;20254;-73
2022/07/09 09:18:59;;;;;;;15.30;5.20;;;;;;;19.08;100.00;94680.91;4936701;29;20661;-73
2022/07/09 09:21:54;;;;;;;6.70;5.57;;;;;;;19.14;100.00;94685.88;4936791;29;20213;-73
2022/07/09 09:24:45;;;;;;;6.07;5.47;;;;;;;19.05;100.00;94678.81;4952145;28;20726;-73
2022/07/09 09:27:56;;;;;;;;;;;;;;;;;;;;;
2022/07/09 09:30:42;;;;;;;8.55;4.70;;;;;;;19.01;100.00;94669.88;4974693;28;20205;-73
2022/07/09 09:33:37;;;;;;;6.80;5.05;;;;;;;19.10;100.00;94676.16;4975059;28;20212;-74
2022/07/09 09:36:37;;;;;;;7.13;5.20;;;;;;;19.22;100.00;94672.16;4974925;28;20252;-73
2022/07/09 09:42:40;;;;;;;12.00;6.65;;;;;;;19.28;100.00;94681.59;4974718;28;20298;-73
2022/07/09 09:45:31;;;;;;;8.95;6.20;;;;;;;19.33;100.00;94675.53;4974645;28;20201;-73
2022/07/09 09:48:21;;;;;;;6.82;5.95;;;;;;;19.25;100.00;94684.00;4974399;28;20688;-73
2022/07/09 09:51:07;;;;;;;6.47;5.47;;;;;;;19.16;100.00;94686.41;4974142;28;20295;-73
2022/07/09 09:57:02;;;;;;;6.38;5.20;;;;;;;19.05;100.00;94678.81;4974241;28;20215;-73
2022/07/09 09:59:52;;;;;;;10.77;5.00;;;;;;;18.89;100.00;94680.72;4974752;28;20204;-74
2022/07/09 10:02:32;;;;;;;9.45;5.93;;;;;;;18.85;100.00;94682.31;4974605;28;20560;-73
2022/07/09 10:05:26;;;;;;;9.30;5.63;;;;;;;18.87;100.00;94682.06;4971346;28;20208;-73
2022/07/09 10:08:08;;;;;;;6.65;5.78;;;;;;;18.75;100.00;94679.72;4974386;28;20252;-73
2022/07/09 10:10:55;;;;;;;7.30;5.68;;;;;;;18.87;100.00;94682.84;4974500;28;20247;-73
2022/07/09 10:13:45;;;;;;;6.05;5.45;;;;;;;18.83;100.00;94681.00;4972979;28;20231;-73
2022/07/09 10:16:50;;;;;;;9.27;5.90;;;;;;;18.86;100.00;94676.00;4974201;28;20233;-73
2022/07/09 10:19:52;;;;;;;7.30;5.90;;;;;;;18.82;100.00;94674.94;4974298;28;20646;-73
2022/07/09 10:22:49;;;;;;;8.45;5.40;;;;;;;18.74;100.00;94686.03;4971183;28;20251;-73
2022/07/09 10:25:55;;;;;;;6.60;4.93;;;;;;;18.67;100.00;94682.91;4973892;28;20232;-73
2022/07/09 10:31:53;;;;;;;5.50;4.50;;;;;;;18.56;100.00;94686.59;4973684;28;20216;-73
2022/07/09 10:34:54;;;;;;;5.18;4.60;;;;;;;18.63;100.00;94690.53;4974146;28;20563;-73
2022/07/09 10:38:01;;;;;;;6.55;4.80;;;;;;;18.66;100.00;94686.56;4974081;28;20204;-73
2022/07/09 10:40:55;;;;;;;6.65;4.82;;;;;;;18.66;100.00;94692.63;4974298;28;20200;-73
2022/07/09 10:43:53;;;;;;;7.55;4.03;;;;;;;18.67;100.00;94694.19;4973944;28;20283;-73
2022/07/09 10:49:46;;;;;;;4.20;2.70;;;;;;;18.83;100.00;94702.06;4973482;28;20233;-73
2022/07/09 10:52:28;;;;;;;2.80;2.60;;;;;;;18.65;100.00;94701.59;4974122;28;20205;-73
2022/07/09 10:55:24;;;;;;;3.00;2.65;;;;;;;18.78;100.00;94700.25;4973842;28;20259;-73
2022/07/09 10:58:18;;;;;;;4.37;2.70;;;;;;;18.50;100.00;94701.59;4974042;28;20333;-73
2022/07/09 11:01:13;;;;;;;2.85;2.60;;;;;;;18.43;100.00;94698.44;4972980;28;20205;-73
2022/07/09 11:04:13;;;;;;;3.65;2.50;;;;;;;18.51;100.00;94697.91;4973542;28;20251;-73
2022/07/09 11:07:19;;;;;;;3.35;2.55;;;;;;;18.49;100.00;94697.41;4973584;28;20240;-73
2022/07/09 11:10:08;;;;;;;5.20;2.80;;;;;;;18.31;100.00;94695.28;4968406;28;20287;-73
2022/07/09 11:13:10;;;;;;;5.45;3.10;;;;;;;18.40;100.00;94701.59;4973388;28;20232;-74
2022/07/09 11:16:04;;;;;;;3.45;3.13;;;;;;;18.36;100.00;94703.16;4972291;28;20208;-74
2022/07/09 11:18:43;;;;;;;4.43;3.35;;;;;;;18.42;100.00;94711.84;4972685;28;20583;-74
2022/07/09 11:21:40;;;;;;;3.50;3.20;;;;;;;18.51;100.00;94705.03;4973387;28;20201;-73
2022/07/09 11:24:33;;;;;;;3.27;3.00;;;;;;;18.39;100.00;94704.47;4973103;28;20608;-73
2022/07/09 11:30:30;;;;;;;4.07;3.07;;;;;;;18.32;100.00;94710.03;4973479;28;20232;-73
2022/07/09 11:33:26;;;;;;;2.90;2.63;;;;;;;18.09;100.00;94700.03;4972084;28;20196;-73
2022/07/09 11:36:19;;;;;;;4.00;3.10;;;;;;;18.00;100.00;94702.41;4972732;28;20209;-72
2022/07/09 11:39:13;;;;;;;3.67;2.77;;;;;;;18.00;100.00;94705.03;4972959;28;20660;-73
2022/07/09 11:42:00;;;;;;;3.63;3.10;;;;;;;17.88;100.00;94693.97;4971182;28;20208;-73
2022/07/09 11:47:47;;;;;;;3.30;2.97;;;;;;;18.05;100.00;94698.97;4972318;28;20265;-73
2022/07/09 11:50:40;;;;;;;5.33;3.20;;;;;;;17.96;100.00;94697.91;4972712;28;20684;-73
2022/07/09 11:53:51;;;;;;;2.93;2.70;;;;;;;17.89;100.00;94687.66;4972537;28;20240;-74
2022/07/09 11:56:57;;;;;;;4.67;3.00;;;;;;;17.94;100.00;94695.56;4972621;28;20200;-74
2022/07/09 12:02:45;;;;;;;3.80;3.20;;;;;;;17.63;100.00;94703.66;4972289;28;20239;-74
2022/07/09 12:05:43;;;;;;;4.40;3.27;;;;;;;17.68;100.00;94691.31;4972663;28;20236;-73
2022/07/09 12:08:39;;;;;;;4.10;3.07;;;;;;;17.74;100.00;94684.22;4972477;28;20208;-74
2022/07/09 12:11:19;;;;;;;3.70;3.40;;;;;;;17.87;100.00;94686.31;4972311;28;20658;-74
2022/07/09 12:14:13;;;;;;;3.53;3.03;;;;;;;18.06;100.00;94688.19;4972023;28;20216;-74
2022/07/09 12:17:01;;;;;;;4.30;2.97;;;;;;;18.25;100.00;94674.50;4972415;28;20291;-73
2022/07/09 12:20:06;;;;;;;4.10;3.20;;;;;;;18.37;100.00;94680.28;4972122;28;20196;-74
2022/07/09 12:22:56;;;;;;;3.70;3.30;;;;;;;18.67;100.00;94682.91;4972262;28;20208;-73
2022/07/09 12:25:44;;;;;;;3.20;2.90;;;;;;;19.00;100.00;94684.91;4969737;28;20711;-73
2022/07/09 12:28:36;;;;;;;3.65;3.13;;;;;;;19.33;100.00;94682.66;4972196;28;20227;-73
2022/07/09 12:37:33;;;;;;;3.80;2.70;;;;;;;19.68;100.00;94685.91;4971546;28;20240;-73
2022/07/09 12:40:29;;;;;;;3.75;2.88;;;;;;;19.39;100.00;94694.78;4972559;28;20271;-73
2022/07/09 12:46:23;;;;;;;3.10;2.80;;;;;;;19.19;100.00;94682.47;4970538;28;20656;-73
2022/07/09 12:49:19;;;;;;;3.85;2.90;;;;;;;19.15;100.00;94682.22;4971423;28;20223;-73
2022/07/09 12:52:05;;;;;;;8.45;3.97;;;;;;;19.17;100.00;94672.19;4971906;28;20212;-73
2022/07/09 12:54:53;;;;;;;4.85;3.88;;;;;;;19.20;100.00;94676.91;4972184;28;20208;-73
2022/07/09 12:57:38;;;;;;;4.80;2.90;;;;;;;19.41;100.00;94675.00;4970098;28;20211;-73
2022/07/09 13:00:32;;;;;;;6.73;2.90;;;;;;;19.32;100.00;94678.44;4971621;28;20200;-73
2022/07/09 13:03:22;;;;;;;3.33;2.85;;;;;;;19.21;100.00;94667.94;4972297;28;20295;-73
2022/07/09 13:06:43;;;;;;;3.03;2.72;;;;;;;19.02;100.00;94669.59;4971628;28;20197;-73
2022/07/09 13:09:31;;;;;;;4.13;2.80;;;;;;;18.94;100.00;94664.88;4971764;28;20225;-73
2022/07/09 13:12:21;;;;;;;4.72;3.10;;;;;;;18.89;100.00;94667.56;4971880;28;20209;-73
2022/07/09 13:15:17;;;;;;;4.65;3.40;;;;;;;18.91;100.00;94668.06;4971709;28;20212;-73
2022/07/09 13:18:17;;;;;;;5.93;3.45;;;;;;;19.03;100.00;94660.66;4970448;28;20205;-73
2022/07/09 13:21:08;;;;;;;4.25;3.35;;;;;;;19.08;100.00;94663.25;4971746;28;20335;-73
2022/07/09 13:23:53;;;;;;;5.25;3.42;;;;;;;19.03;100.00;94658.00;4972145;28;20698;-73
2022/07/09 13:26:51;;;;;;;3.45;3.15;;;;;;;18.83;100.00;94655.44;4975075;28;20775;-73
2022/07/09 13:29:43;;;;;;;3.63;3.33;;;;;;;18.88;100.00;94654.63;4974810;28;20225;-73
2022/07/09 13:35:22;;;;;;;3.90;3.30;;;;;;;18.59;100.00;94638.66;4974665;28;20208;-73
2022/07/09 13:38:13;;;;;;;7.23;3.50;;;;;;;18.58;100.00;94632.63;4975137;28;20656;-73
2022/07/09 13:44:23;;;;;;;6.70;3.65;;;;;;;18.71;100.00;94633.91;4973239;28;20295;-73
2022/07/09 13:47:18;;;;;;;7.00;3.50;;;;;;;18.78;100.00;94634.41;4974742;28;20578;-73
2022/07/09 13:50:11;;;;;;;4.85;3.20;;;;;;;18.94;100.00;94640.38;4974837;28;20271;-74
2022/07/09 13:52:55;;;;;;;4.47;3.15;;;;;;;19.05;100.00;94647.97;4974918;28;20209;-74
2022/07/09 13:56:04;;;;;;;;;;;;;;;;;;;;;
2022/07/09 13:58:51;;;;;;;3.70;3.38;;;;;;;19.14;100.00;94646.38;4967295;28;20219;-74
2022/07/09 14:01:38;;;;;;;5.63;3.55;;;;;;;19.20;100.00;94640.00;4974662;28;20664;-73
2022/07/09 14:04:16;;;;;;;5.43;3.45;;;;;;;19.13;100.00;94634.25;4974585;28;20303;-74
2022/07/09 14:07:10;;;;;;;5.53;3.40;;;;;;;19.01;100.00;94628.53;4974072;28;20287;-74
2022/07/09 14:09:56;;;;;;;4.90;3.30;;;;;;;18.81;100.00;94625.97;4970855;28;20326;-72
2022/07/09 14:12:49;;;;;;;3.50;3.00;;;;;;;18.76;100.00;94633.88;4974688;28;20201;-73
2022/07/09 14:15:37;;;;;;;4.60;3.20;;;;;;;18.91;100.00;94633.03;4974178;28;20603;-72
2022/07/09 14:24:15;;;;;;;8.18;5.07;;;;;;;19.32;100.00;94615.19;4973318;28;20730;-73
2022/07/09 14:27:05;;;;;;;8.80;4.68;;;;;;;19.42;100.00;94621.22;4974289;28;20204;-73
2022/07/09 14:30:14;;;;;;;9.60;4.93;;;;;;;19.59;100.00;94626.13;4974484;28;20225;-73
2022/07/09 14:33:00;;;;;;;5.55;3.90;;;;;;;19.60;100.00;94623.19;4971782;28;20700;-73
2022/07/09 14:35:53;;;;;;;3.72;2.95;;;;;;;19.50;100.00;94614.56;4973599;28;20642;-73
2022/07/09 14:38:45;;;;;;;3.40;3.10;;;;;;;19.40;100.00;94610.13;4973165;28;20259;-72
2022/07/09 14:41:39;;;;;;;4.07;2.95;;;;;;;19.14;100.00;94603.41;4973944;28;20205;-73
2022/07/09 14:44:30;;;;;;;3.20;2.85;;;;;;;19.05;100.00;94603.19;4973994;28;20211;-73
2022/07/09 14:47:26;;;;;;;7.47;3.70;;;;;;;19.07;100.00;94605.56;4973497;28;20214;-73
2022/07/09 14:50:22;;;;;;;4.03;3.53;;;;;;;19.27;100.00;94614.16;4973890;28;20599;-73
2022/07/09 14:53:13;;;;;;;3.60;3.30;;;;;;;19.40;100.00;94611.97;4973968;28;20209;-73
2022/07/09 14:56:07;;;;;;;3.95;3.55;;;;;;;19.45;100.00;94620.66;4973982;28;20560;-73
2022/07/09 14:58:54;;;;;;;3.63;3.33;;;;;;;19.51;100.00;94616.16;4973760;28;20205;-73
2022/07/09 15:02:12;;;;;;;4.53;3.38;;;;;;;19.34;100.00;94605.13;4973676;28;20234;-73
2022/07/09 15:05:13;;;;;;;5.78;3.83;;;;;;;19.44;100.00;94620.94;4972930;28;20255;-74
2022/07/09 15:07:51;;;;;;;4.32;3.30;;;;;;;19.37;100.00;94618.56;4973422;28;20204;-73
2022/07/09 15:13:37;;;;;;;3.33;3.05;;;;;;;19.15;100.00;94616.34;4972823;28;20213;-74
2022/07/09 15:16:32;;;;;;;3.37;3.07;;;;;;;19.09;100.00;94609.50;4973727;28;20299;-74
2022/07/09 15:19:14;;;;;;;3.97;3.45;;;;;;;19.05;100.00;94607.66;4973223;28;20219;-74
2022/07/09 15:22:19;;;;;;;6.63;4.10;;;;;;;19.03;100.00;94615.06;4973095;28;20208;-73
2022/07/09 15:25:05;;;;;;;5.30;3.70;;;;;;;19.07;100.00;94611.63;4972871;28;20699;-74
2022/07/09 15:28:01;;;;;;;4.55;3.78;;;;;;;19.17;100.00;94610.78;4973276;28;20200;-73
2022/07/09 15:30:48;;;;;;;7.63;4.05;;;;;;;19.22;100.00;94610.75;4971473;28;20224;-73
2022/07/09 15:33:45;;;;;;;5.82;4.10;;;;;;;19.19;100.00;94606.03;4973179;28;20291;-73
2022/07/09 15:36:40;;;;;;;4.93;3.88;;;;;;;19.23;100.00;94613.13;4973311;28;20213;-73
2022/07/09 15:39:41;;;;;;;8.10;3.70;;;;;;;19.25;100.00;94612.84;4973101;28;20752;-73
2022/07/09 15:45:28;;;;;;;4.28;3.88;;;;;;;19.15;100.00;94612.91;4972046;28;20205;-73
2022/07/09 15:48:21;;;;;;;7.22;4.30;;;;;;;19.08;100.00;94610.56;4972657;28;20204;-73
2022/07/09 15:51:09;;;;;;;4.40;3.85;;;;;;;19.22;100.00;94608.09;4972559;28;20232;-73
2022/07/09 15:56:59;;;;;;;6.65;4.40;;;;;;;19.24;100.00;94617.34;4971549;28;20215;-73